createdAt,value
2022-11-28T00:01:43.745Z,101026.75
2022-11-28T00:06:49.460Z,101018.63
2022-11-28T00:11:52.897Z,101005.94
2022-11-28T00:16:57.568Z,101023.97
2022-11-28T00:22:00.683Z,101026.03
2022-11-28T00:27:04.011Z,101014.81
2022-11-28T00:32:08.609Z,101022.41
2022-11-28T00:37:12.024Z,101020.38
2022-11-28T00:42:16.653Z,101015.63
2022-11-28T00:47:21.328Z,101010.03
2022-11-28T00:52:24.615Z,101004.81
2022-11-28T00:57:28.021Z,101006.66
2022-11-28T01:02:32.780Z,100992.84
2022-11-28T01:07:35.926Z,101001.03
2022-11-28T01:12:39.287Z,100995.53
2022-11-28T01:17:43.969Z,100999.78
2022-11-28T01:22:46.912Z,101003.69
2022-11-28T01:27:50.226Z,101004.38
2022-11-28T01:32:54.732Z,101001.47
2022-11-28T01:37:57.890Z,101009.09
2022-11-28T01:43:01.247Z,101010.03
2022-11-28T01:48:06.343Z,101012.63
2022-11-28T01:53:11.545Z,101021.59
2022-11-28T01:58:15.159Z,101016.50
2022-11-28T02:03:24.616Z,101008.03
2022-11-28T02:08:28.043Z,101006.72
2022-11-28T02:13:42.035Z,101004.75
2022-11-28T02:19:29.888Z,101002.66
2022-11-28T02:24:55.336Z,101010.00
2022-11-28T02:30:20.139Z,101011.84
2022-11-28T02:35:30.331Z,101018.09
2022-11-28T02:40:39.948Z,101030.31
2022-11-28T02:45:51.956Z,101034.78
2022-11-28T02:51:02.710Z,101042.94
2022-11-28T02:56:06.775Z,101042.88
2022-11-28T03:01:17.411Z,101049.88
2022-11-28T03:06:33.853Z,101053.34
2022-11-28T03:11:48.972Z,101055.13
2022-11-28T03:16:57.929Z,101060.69
2022-11-28T03:22:11.633Z,101055.44
2022-11-28T03:27:20.387Z,101067.25
2022-11-28T03:32:27.959Z,101069.75
2022-11-28T03:37:36.939Z,101072.97
2022-11-28T03:42:43.740Z,101077.38
2022-11-28T03:47:52.370Z,101080.09
2022-11-28T03:53:03.157Z,101079.09
2022-11-28T03:58:13.227Z,101089.59
2022-11-28T04:03:27.880Z,101085.81
2022-11-28T04:08:37.933Z,101092.56
2022-11-28T04:13:47.025Z,101096.91
2022-11-28T04:18:56.780Z,101105.34
2022-11-28T04:24:05.018Z,101102.56
2022-11-28T04:29:11.304Z,101102.16
2022-11-28T04:34:18.601Z,101102.25
2022-11-28T04:39:26.537Z,101108.09
2022-11-28T04:44:35.284Z,101116.69
2022-11-28T04:49:39.269Z,101119.88
2022-11-28T04:54:52.918Z,101124.03
2022-11-28T04:59:57.779Z,101124.03
2022-11-28T05:05:01.235Z,101127.06
2022-11-28T05:10:06.789Z,101127.66
2022-11-28T05:15:11.380Z,101134.41
2022-11-28T05:20:14.758Z,101143.25
2022-11-28T05:25:19.341Z,101149.47
2022-11-28T05:30:22.553Z,101160.41
2022-11-28T05:35:25.826Z,101164.34
2022-11-28T05:40:30.539Z,101168.00
2022-11-28T05:45:33.489Z,101168.81
2022-11-28T05:50:39.895Z,101176.19
2022-11-28T05:55:45.406Z,101174.28
2022-11-28T06:00:48.725Z,101174.25
2022-11-28T06:05:52.689Z,101177.56
2022-11-28T06:10:59.341Z,101172.81
2022-11-28T06:16:02.536Z,101183.13
2022-11-28T06:21:07.955Z,101184.16
2022-11-28T06:26:15.090Z,101192.56
2022-11-28T06:31:20.608Z,101183.00
2022-11-28T06:36:23.862Z,101184.63
2022-11-28T06:41:28.462Z,101197.59
2022-11-28T06:46:34.581Z,101192.03
2022-11-28T06:51:37.904Z,101193.03
2022-11-28T06:56:43.460Z,101181.41
2022-11-28T07:01:46.776Z,101186.50
2022-11-28T07:06:50.294Z,101191.22
2022-11-28T07:11:55.053Z,101198.19
2022-11-28T07:17:00.084Z,101198.81
2022-11-28T07:22:03.534Z,101201.97
2022-11-28T07:27:08.132Z,101208.44
2022-11-28T07:32:11.625Z,101201.13
2022-11-28T07:37:16.263Z,101199.88
2022-11-28T07:42:20.896Z,101200.03
2022-11-28T07:47:24.630Z,101202.69
2022-11-28T07:52:27.919Z,101195.28
2022-11-28T07:57:32.656Z,101206.44
2022-11-28T08:02:35.740Z,101211.16
2022-11-28T08:07:39.619Z,101212.00
2022-11-28T08:12:44.720Z,101222.28
2022-11-28T08:17:47.891Z,101209.22
2022-11-28T08:22:51.637Z,101223.34
2022-11-28T08:27:56.217Z,101199.06
2022-11-28T08:32:59.553Z,101231.09
2022-11-28T08:38:02.680Z,101227.91
2022-11-28T08:43:08.249Z,101227.19
2022-11-28T08:48:11.588Z,101235.66
2022-11-28T08:53:18.511Z,101226.13
2022-11-28T08:58:23.499Z,101229.78
2022-11-28T09:03:26.532Z,101234.53
2022-11-28T09:08:30.102Z,101229.31
2022-11-28T09:13:34.802Z,101222.91
2022-11-28T09:18:38.268Z,101236.22
2022-11-28T09:23:44.044Z,101232.78
2022-11-28T09:28:49.297Z,101232.34
2022-11-28T09:33:52.798Z,101233.75
2022-11-28T09:38:56.092Z,101238.09
2022-11-28T09:44:07.550Z,101245.94
2022-11-28T09:49:40.272Z,101245.63
2022-11-28T09:54:48.376Z,101234.25
2022-11-28T09:59:53.102Z,101253.88
2022-11-28T10:05:07.308Z,101255.00
2022-11-28T10:10:24.265Z,101252.59
2022-11-28T10:15:40.369Z,101250.06
2022-11-28T10:20:45.931Z,101241.47
2022-11-28T10:25:55.372Z,101243.84
2022-11-28T10:31:05.750Z,101238.75
2022-11-28T10:36:17.725Z,101237.69
2022-11-28T10:41:28.996Z,101246.69
2022-11-28T10:47:01.932Z,101247.56
2022-11-28T10:52:14.080Z,101247.84
2022-11-28T10:57:22.750Z,101251.66
2022-11-28T11:02:37.694Z,101234.88
2022-11-28T11:07:42.158Z,101255.47
2022-11-28T11:12:46.338Z,101252.75
2022-11-28T11:17:52.013Z,101245.72
2022-11-28T11:22:57.060Z,101250.56
2022-11-28T11:28:02.738Z,101243.78
2022-11-28T11:33:13.965Z,101251.66
2022-11-28T11:38:19.870Z,101258.41
2022-11-28T11:43:27.773Z,101249.41
2022-11-28T11:48:38.291Z,101249.13
2022-11-28T11:53:41.892Z,101251.28
2022-11-28T11:58:50.419Z,101271.56
2022-11-28T12:04:08.393Z,101258.56
2022-11-28T12:09:24.573Z,101268.19
2022-11-28T12:14:31.656Z,101272.03
2022-11-28T12:19:45.996Z,101276.81
2022-11-28T12:25:02.983Z,101269.84
2022-11-28T12:30:25.256Z,101274.59
2022-11-28T12:35:39.751Z,101274.34
2022-11-28T12:40:55.407Z,101283.72
2022-11-28T12:46:07.146Z,101287.69
2022-11-28T12:51:23.474Z,101267.97
2022-11-28T12:56:38.650Z,101298.31
2022-11-28T13:01:56.429Z,101298.31
2022-11-28T13:07:12.680Z,101290.53
2022-11-28T13:12:22.939Z,101290.69
2022-11-28T13:17:39.831Z,101290.06
2022-11-28T13:22:54.482Z,101291.28
2022-11-28T13:28:07.342Z,101296.25
2022-11-28T13:33:44.884Z,101304.56
2022-11-28T13:39:11.817Z,101317.63
2022-11-28T13:44:22.242Z,101321.56
2022-11-28T13:49:29.700Z,101325.03
2022-11-28T13:54:46.490Z,101318.53
2022-11-28T13:59:58.233Z,101313.94
2022-11-28T14:05:02.036Z,101325.03
2022-11-28T14:10:50.972Z,101329.38
2022-11-28T14:16:07.782Z,101331.13
2022-11-28T14:21:20.176Z,101338.38
2022-11-28T14:26:31.653Z,101338.25
2022-11-28T14:31:38.396Z,101337.63
2022-11-28T14:36:42.941Z,101339.25
2022-11-28T14:48:16.344Z,101341.69
2022-11-28T14:53:44.679Z,101341.84
2022-11-28T14:58:50.585Z,101345.00
2022-11-28T15:04:01.237Z,101338.75
2022-11-28T15:09:08.908Z,101337.75
2022-11-28T15:14:21.096Z,101328.19
2022-11-28T15:19:29.314Z,101346.00
2022-11-28T15:24:35.254Z,101320.72
2022-11-28T15:29:39.957Z,101333.69
2022-11-28T15:34:43.074Z,101343.91
2022-11-28T15:39:49.263Z,101333.41
2022-11-28T15:44:59.914Z,101350.84
2022-11-28T15:50:06.790Z,101349.22
2022-11-28T15:55:16.977Z,101347.91
2022-11-28T16:00:24.427Z,101349.06
2022-11-28T16:05:29.359Z,101347.03
2022-11-28T16:10:37.825Z,101342.47
2022-11-28T16:15:50.147Z,101348.31
2022-11-28T16:20:54.319Z,101343.75
2022-11-28T16:26:03.452Z,101339.41
2022-11-28T16:31:14.276Z,101341.06
2022-11-28T16:36:22.903Z,101351.13
2022-11-28T16:41:30.709Z,101349.69
2022-11-28T16:46:40.109Z,101355.25
2022-11-28T16:51:43.409Z,101359.09
2022-11-28T16:56:46.734Z,101364.53
2022-11-28T17:01:54.965Z,101367.09
2022-11-28T17:07:04.480Z,101364.78
2022-11-28T17:12:12.420Z,101368.84
2022-11-28T17:17:19.179Z,101370.75
2022-11-28T17:22:26.561Z,101376.56
2022-11-28T17:27:30.464Z,101380.97
2022-11-28T17:32:35.295Z,101389.19
2022-11-28T17:37:40.997Z,101387.78
2022-11-28T17:42:44.543Z,101399.13
2022-11-28T17:47:49.643Z,101389.88
2022-11-28T17:52:53.129Z,101397.91
2022-11-28T17:57:56.918Z,101389.50
2022-11-28T18:03:02.669Z,101388.97
2022-11-28T18:08:08.003Z,101396.22
2022-11-28T18:13:11.761Z,101373.03
2022-11-28T18:18:16.567Z,101382.00
2022-11-28T18:23:20.037Z,101370.78
2022-11-28T18:28:23.528Z,101373.59
2022-11-28T18:33:28.323Z,101381.22
2022-11-28T18:38:32.231Z,101377.66
2022-11-28T18:43:37.075Z,101379.78
2022-11-28T18:48:42.240Z,101395.84
2022-11-28T18:53:46.254Z,101389.00
2022-11-28T18:58:52.655Z,101380.50
2022-11-28T19:04:03.494Z,101396.25
2022-11-28T19:09:09.627Z,101397.97
2022-11-28T19:14:16.566Z,101401.94
2022-11-28T19:19:21.147Z,101399.66
2022-11-28T19:24:24.226Z,101401.34
2022-11-28T19:29:27.741Z,101397.94
2022-11-28T19:34:33.017Z,101387.59
2022-11-28T19:39:37.644Z,101392.16
2022-11-28T19:44:41.096Z,101401.66
2022-11-28T19:49:46.078Z,101394.81
2022-11-28T19:54:49.887Z,101404.47
2022-11-28T19:59:54.481Z,101397.97
2022-11-28T20:04:59.022Z,101411.41
2022-11-28T20:15:24.504Z,101412.94
2022-11-28T20:20:29.384Z,101415.53
2022-11-28T20:25:33.461Z,101423.22
2022-11-28T20:30:37.352Z,101442.63
2022-11-28T20:35:42.059Z,101430.00
2022-11-28T20:40:45.161Z,101426.47
2022-11-28T20:45:48.438Z,101427.59
2022-11-28T20:50:53.029Z,101417.94
2022-11-28T20:56:03.205Z,101429.53
2022-11-28T21:01:07.140Z,101424.00
2022-11-28T21:06:12.572Z,101433.44
2022-11-28T21:11:36.642Z,101439.03
2022-11-28T21:16:40.541Z,101438.75
2022-11-28T21:21:45.117Z,101435.25
2022-11-28T21:26:53.565Z,101439.53
2022-11-28T21:31:57.774Z,101443.22
2022-11-28T21:37:03.040Z,101438.91
2022-11-28T21:42:06.389Z,101439.38
2022-11-28T21:47:09.870Z,101443.72
2022-11-28T21:52:16.080Z,101432.63
2022-11-28T21:57:19.438Z,101442.00
2022-11-28T22:02:27.658Z,101449.66
2022-11-28T22:07:36.654Z,101439.13
2022-11-28T22:12:40.040Z,101437.00
2022-11-28T22:17:43.429Z,101444.50
2022-11-28T22:22:49.479Z,101447.22
2022-11-28T22:27:52.648Z,101447.97
2022-11-28T22:32:56.149Z,101437.91
2022-11-28T22:38:00.686Z,101446.16
2022-11-28T22:43:04.017Z,101448.72
2022-11-28T22:48:07.857Z,101452.19
2022-11-28T22:53:12.417Z,101450.88
2022-11-28T22:58:15.735Z,101450.81
2022-11-28T23:03:18.985Z,101450.44
2022-11-28T23:08:23.730Z,101445.78
2022-11-28T23:13:26.892Z,101452.41
2022-11-28T23:18:30.110Z,101447.06
2022-11-28T23:23:35.118Z,101450.38
2022-11-28T23:28:39.744Z,101445.44
2022-11-28T23:33:43.953Z,101444.78
2022-11-28T23:38:50.567Z,101449.13
2022-11-28T23:43:54.171Z,101444.16
2022-11-28T23:48:57.855Z,101446.72
2022-11-28T23:54:02.457Z,101441.06
2022-11-28T23:59:24.652Z,101442.22
